Time;durP1;ratioP1;P1;durP2;ratioP2;P2;SDS_P1;SDS_P2;PMS_P1;PMS_P2;Temp;Humidity;BMP_temperature;BMP_pressure;BME280_temperature;BME280_humidity;BME280_pressure;Samples;Min_cycle;Max_cycle;Signal;HPM_P1;HPM_P2
2021/06/07 00:01:39;;;;;;;4.70;1.70;;;;;;;22.26;48.02;102195.84;4992522;28;20065;-67
2021/06/07 00:04:05;;;;;;;2.95;1.40;;;;;;;22.26;47.92;102190.50;4992384;28;20050;-70
2021/06/07 00:06:30;;;;;;;2.95;1.33;;;;;;;22.25;47.75;102181.66;4992826;28;20046;-67
2021/06/07 00:08:56;;;;;;;2.45;1.40;;;;;;;22.26;47.99;102182.47;5004041;28;20057;-68
2021/06/07 00:11:22;;;;;;;2.92;1.70;;;;;;;22.26;47.89;102180.63;4992590;28;20116;-67
2021/06/07 00:13:49;;;;;;;2.80;1.70;;;;;;;22.26;47.76;102186.00;5003919;28;20044;-67
2021/06/07 00:16:15;;;;;;;3.35;1.70;;;;;;;22.25;48.04;102183.47;4997665;28;20123;-68
2021/06/07 00:18:41;;;;;;;2.47;1.45;;;;;;;22.25;47.83;102181.66;5000171;28;20426;-68
2021/06/07 00:21:32;;;;;;;2.75;1.40;;;;;;;22.21;48.13;102188.34;5000715;28;20038;-68
2021/06/07 00:23:59;;;;;;;3.13;1.70;;;;;;;22.25;48.13;102189.69;4997124;28;20076;-67
2021/06/07 00:26:24;;;;;;;3.47;1.52;;;;;;;22.25;48.07;102189.69;4976734;28;20133;-66
2021/06/07 00:28:50;;;;;;;1.95;1.30;;;;;;;22.25;47.80;102184.31;4996646;28;20022;-66
2021/06/07 00:31:16;;;;;;;2.42;1.60;;;;;;;22.25;47.96;102184.31;5011181;28;20443;-67
2021/06/07 00:33:41;;;;;;;2.50;1.20;;;;;;;22.26;47.91;102182.47;5006980;28;20037;-68
2021/06/07 00:36:09;;;;;;;2.50;1.30;;;;;;;22.26;48.13;102177.13;4995559;28;20031;-67
2021/06/07 00:38:36;;;;;;;2.13;1.35;;;;;;;22.25;48.22;102176.31;5007845;28;20034;-68
2021/06/07 00:41:05;;;;;;;3.05;1.38;;;;;;;22.25;47.84;102172.78;4986745;28;20030;-67
2021/06/07 00:43:30;;;;;;;2.85;1.42;;;;;;;22.26;48.12;102172.63;5010512;28;20139;-67
2021/06/07 00:45:56;;;;;;;3.10;1.52;;;;;;;22.27;48.09;102176.13;4987587;28;20054;-68
2021/06/07 00:48:22;;;;;;;2.75;1.63;;;;;;;22.26;48.25;102174.47;5005852;28;20045;-65
2021/06/07 00:51:00;;;;;;;2.88;1.50;;;;;;;22.24;48.12;102168.44;4992728;28;20041;-65
2021/06/07 00:53:25;;;;;;;2.47;1.42;;;;;;;22.26;48.22;102169.13;4993357;28;20103;-65
2021/06/07 00:55:58;;;;;;;2.70;1.50;;;;;;;22.25;48.11;102157.59;4995904;28;20064;-66
2021/06/07 00:58:28;;;;;;;2.83;1.67;;;;;;;22.25;48.04;102159.41;5001892;28;20089;-65
2021/06/07 01:00:54;;;;;;;2.38;1.40;;;;;;;22.26;48.05;102161.09;5004875;28;20384;-65
2021/06/07 01:03:20;;;;;;;2.78;1.45;;;;;;;22.26;48.05;102155.75;5010330;28;20068;-65
2021/06/07 01:05:49;;;;;;;2.75;1.48;;;;;;;22.27;48.01;102154.75;5010396;28;20084;-68
2021/06/07 01:08:15;;;;;;;2.75;1.45;;;;;;;22.26;48.27;102155.75;5005025;28;20091;-67
2021/06/07 01:10:42;;;;;;;2.25;1.50;;;;;;;22.26;48.24;102156.59;5002565;28;20042;-65
2021/06/07 01:13:08;;;;;;;2.13;1.38;;;;;;;22.26;47.84;102155.75;5008142;28;20120;-65
2021/06/07 01:15:33;;;;;;;2.90;1.48;;;;;;;22.25;48.17;102146.03;4994357;28;20525;-66
2021/06/07 01:17:59;;;;;;;2.40;1.40;;;;;;;22.25;48.21;102154.06;4978938;28;20045;-64
2021/06/07 01:20:25;;;;;;;3.53;1.75;;;;;;;22.25;48.08;102151.38;4981415;28;20033;-66
2021/06/07 01:22:53;;;;;;;2.53;1.33;;;;;;;22.25;48.17;102149.56;5009696;28;20222;-66
2021/06/07 01:25:28;;;;;;;3.15;1.25;;;;;;;22.24;47.82;102152.41;5006377;28;20026;-66
2021/06/07 01:27:56;;;;;;;2.63;1.30;;;;;;;22.26;47.81;102148.56;5003538;28;20076;-66
2021/06/07 01:30:29;;;;;;;2.20;1.30;;;;;;;22.24;47.68;102147.88;5009785;28;20037;-66
2021/06/07 01:32:56;;;;;;;2.38;1.48;;;;;;;22.26;47.91;102150.41;4991937;28;20104;-66
2021/06/07 01:35:22;;;;;;;2.45;1.67;;;;;;;22.26;47.89;102153.09;4991051;28;20125;-66
2021/06/07 01:37:48;;;;;;;2.45;1.50;;;;;;;22.25;47.92;102148.72;4983894;28;20106;-66
2021/06/07 01:40:18;;;;;;;2.47;1.20;;;;;;;22.25;47.83;102154.06;5000499;28;20414;-66
2021/06/07 01:42:44;;;;;;;1.73;1.13;;;;;;;22.25;48.18;102148.72;4995937;28;20096;-66
2021/06/07 01:45:11;;;;;;;2.05;1.17;;;;;;;22.24;47.96;102153.22;4977430;28;20030;-66
2021/06/07 01:47:36;;;;;;;1.92;1.33;;;;;;;22.25;47.94;102141.56;5000137;28;20030;-66
2021/06/07 01:50:05;;;;;;;2.42;1.50;;;;;;;22.26;47.96;102147.72;5000220;28;20044;-66
2021/06/07 01:52:31;;;;;;;2.25;1.60;;;;;;;22.26;47.86;102145.06;5004844;28;20520;-69
2021/06/07 01:54:56;;;;;;;2.88;1.30;;;;;;;22.24;48.06;102134.53;5008530;28;20076;-66
2021/06/07 01:57:22;;;;;;;2.55;1.23;;;;;;;22.24;47.80;102131.03;4998243;28;20048;-66
2021/06/07 01:59:47;;;;;;;2.38;1.33;;;;;;;22.24;47.67;102129.19;4997148;28;20041;-66
2021/06/07 02:02:13;;;;;;;2.40;1.20;;;;;;;22.24;48.04;102137.19;5009913;28;20026;-66
2021/06/07 02:04:38;;;;;;;2.90;1.52;;;;;;;22.24;47.89;102123.00;4973795;28;20104;-66
2021/06/07 02:07:04;;;;;;;2.38;1.50;;;;;;;22.25;47.88;102125.53;4992033;28;20034;-66
2021/06/07 02:09:29;;;;;;;2.55;1.38;;;;;;;22.25;48.10;102127.34;4998491;28;20046;-66
2021/06/07 02:11:55;;;;;;;2.22;1.30;;;;;;;22.24;47.90;102123.84;4997600;28;20030;-66
2021/06/07 02:14:20;;;;;;;1.80;1.23;;;;;;;22.24;48.12;102114.97;4980128;28;20049;-66
2021/06/07 02:16:46;;;;;;;3.05;1.42;;;;;;;22.24;48.14;102128.34;4976605;28;20031;-66
2021/06/07 02:19:12;;;;;;;2.05;1.23;;;;;;;22.24;48.15;102125.69;4975037;28;20038;-66
2021/06/07 02:21:39;;;;;;;2.78;1.20;;;;;;;22.22;47.74;102128.53;5006863;28;20026;-66
2021/06/07 02:24:06;;;;;;;2.40;1.40;;;;;;;22.24;47.70;102129.19;4984734;28;20034;-66
2021/06/07 02:26:33;;;;;;;3.17;1.30;;;;;;;22.23;48.01;102124.84;4970920;28;20030;-66
2021/06/07 02:29:02;;;;;;;2.35;1.30;;;;;;;22.23;47.81;102127.50;4990623;28;20038;-66
2021/06/07 02:31:29;;;;;;;1.88;1.10;;;;;;;22.23;48.08;102118.66;5009300;28;20025;-65
2021/06/07 02:33:56;;;;;;;2.65;1.40;;;;;;;22.24;48.12;102123.00;4986544;28;20126;-66
2021/06/07 02:36:25;;;;;;;2.17;1.13;;;;;;;22.23;47.85;102122.16;4985327;28;20045;-66
2021/06/07 02:38:51;;;;;;;2.35;1.50;;;;;;;22.23;47.85;102116.81;4992542;28;20033;-66
2021/06/07 02:41:18;;;;;;;3.10;1.30;;;;;;;22.23;48.21;102124.00;5001151;28;20037;-66
2021/06/07 02:43:45;;;;;;;2.50;1.27;;;;;;;22.24;47.81;102129.19;5006136;28;20054;-66
2021/06/07 02:46:10;;;;;;;1.80;1.20;;;;;;;22.23;47.63;102126.69;4982120;28;20037;-66
2021/06/07 02:48:37;;;;;;;3.15;1.40;;;;;;;22.23;48.06;102122.16;4977834;28;20085;-66
2021/06/07 02:51:03;;;;;;;2.38;1.40;;;;;;;22.23;47.71;102110.66;5002062;28;20034;-66
2021/06/07 02:53:29;;;;;;;2.17;1.30;;;;;;;22.23;48.20;102118.66;4989533;28;20133;-65
2021/06/07 02:55:55;;;;;;;3.03;1.20;;;;;;;22.22;47.99;102119.69;5003968;28;21545;-65
2021/06/07 02:58:22;;;;;;;2.10;1.30;;;;;;;22.23;48.06;102113.31;4971425;28;20038;-66
2021/06/07 03:01:09;;;;;;;2.85;1.20;;;;;;;22.19;47.75;102114.72;4976878;28;20050;-67
2021/06/07 03:03:35;;;;;;;1.90;1.20;;;;;;;22.22;47.89;102109.81;4980949;28;20046;-66
2021/06/07 03:06:01;;;;;;;2.72;1.50;;;;;;;22.22;47.81;102115.16;4990026;28;20035;-66
2021/06/07 03:08:29;;;;;;;2.38;1.30;;;;;;;22.22;48.21;102120.50;5001153;28;20038;-66
2021/06/07 03:10:58;;;;;;;1.90;1.02;;;;;;;22.22;48.06;102112.50;4970723;28;20034;-67
2021/06/07 03:13:24;;;;;;;2.38;1.30;;;;;;;22.22;47.75;102106.31;4995258;28;20088;-66
2021/06/07 03:15:53;;;;;;;1.75;1.08;;;;;;;22.22;47.85;102106.31;4996180;28;20177;-66
2021/06/07 03:18:19;;;;;;;3.38;1.55;;;;;;;22.23;48.04;102110.66;5006725;28;20120;-66
2021/06/07 03:20:45;;;;;;;1.88;1.10;;;;;;;22.22;47.82;102111.66;4963522;28;20045;-66
2021/06/07 03:23:14;;;;;;;3.13;1.40;;;;;;;22.22;47.88;102109.00;4989380;28;20026;-66
2021/06/07 03:25:40;;;;;;;2.15;1.15;;;;;;;22.21;47.80;102105.50;4974233;28;20026;-65
2021/06/07 03:28:08;;;;;;;3.40;1.40;;;;;;;22.21;47.75;102107.34;4995750;28;20095;-66
2021/06/07 03:30:34;;;;;;;3.35;1.40;;;;;;;22.22;48.12;102111.66;4983507;28;20030;-65
2021/06/07 03:33:00;;;;;;;2.20;1.20;;;;;;;22.21;47.97;102102.81;5007486;28;20037;-66
2021/06/07 03:35:26;;;;;;;3.55;1.27;;;;;;;22.22;48.12;102103.66;4973669;28;20405;-66
2021/06/07 03:37:52;;;;;;;1.85;1.20;;;;;;;22.21;47.82;102104.66;4999565;28;20064;-66
2021/06/07 03:40:29;;;;;;;2.35;1.20;;;;;;;22.19;47.73;102107.53;4984431;28;20043;-66
2021/06/07 03:42:55;;;;;;;1.88;1.25;;;;;;;22.20;47.91;102095.00;5000020;28;20288;-66
2021/06/07 03:45:21;;;;;;;3.45;1.33;;;;;;;22.21;48.03;102096.66;4991726;28;20065;-66
2021/06/07 03:47:49;;;;;;;2.85;1.60;;;;;;;22.20;48.10;102092.31;4989772;28;20200;-66
2021/06/07 03:50:18;;;;;;;2.28;1.20;;;;;;;22.20;47.89;102095.00;4973635;28;20066;-65
2021/06/07 03:52:44;;;;;;;2.40;1.10;;;;;;;22.19;47.79;102086.13;5003114;28;20049;-66
2021/06/07 03:55:12;;;;;;;2.35;1.38;;;;;;;22.20;47.78;102087.78;4999279;28;20066;-66
2021/06/07 03:57:38;;;;;;;2.58;1.25;;;;;;;22.20;48.14;102095.00;5006520;28;20466;-66
2021/06/07 04:00:08;;;;;;;2.50;1.25;;;;;;;22.19;47.72;102086.13;5007974;28;20030;-66
2021/06/07 04:02:34;;;;;;;2.60;1.10;;;;;;;22.19;48.13;102083.47;5007388;28;20438;-65
2021/06/07 04:04:59;;;;;;;2.58;1.25;;;;;;;22.19;48.03;102082.63;4971033;28;20133;-66
2021/06/07 04:07:25;;;;;;;1.80;1.10;;;;;;;22.19;47.75;102072.78;5003802;28;20081;-65
2021/06/07 04:09:50;;;;;;;2.55;1.10;;;;;;;22.18;47.75;102071.13;4993243;28;20932;-66
2021/06/07 04:12:16;;;;;;;2.58;1.20;;;;;;;22.20;47.85;102074.44;5011571;28;20529;-66
2021/06/07 04:14:41;;;;;;;2.03;1.10;;;;;;;22.20;47.75;102073.59;5010334;28;20497;-66
2021/06/07 04:17:08;;;;;;;2.13;1.27;;;;;;;22.19;48.09;102071.94;5012036;28;20052;-66
2021/06/07 04:19:33;;;;;;;2.72;1.25;;;;;;;22.18;47.85;102070.28;4993467;28;20358;-65
2021/06/07 04:21:59;;;;;;;2.15;1.20;;;;;;;22.18;47.97;102062.28;5002533;28;20037;-66
2021/06/07 04:24:24;;;;;;;2.15;1.30;;;;;;;22.18;47.62;102056.94;4971166;28;20065;-66
2021/06/07 04:26:50;;;;;;;2.03;1.23;;;;;;;22.17;47.71;102064.13;4998181;28;20385;-66
2021/06/07 04:29:15;;;;;;;2.75;1.55;;;;;;;22.18;47.87;102064.94;5000169;28;20482;-66
2021/06/07 04:31:41;;;;;;;1.92;1.30;;;;;;;22.18;47.63;102054.25;4996503;28;20033;-66
2021/06/07 04:34:06;;;;;;;1.80;1.10;;;;;;;22.17;47.81;102057.94;5001422;28;20439;-66
2021/06/07 04:36:32;;;;;;;2.97;1.40;;;;;;;22.17;47.63;102057.94;4992706;28;20062;-66
2021/06/07 04:38:57;;;;;;;2.83;1.40;;;;;;;22.17;47.88;102060.63;5003506;28;20386;-66
2021/06/07 04:41:23;;;;;;;2.20;1.20;;;;;;;22.18;47.82;102059.59;4958070;28;20046;-66
2021/06/07 04:43:49;;;;;;;1.77;1.45;;;;;;;22.18;47.54;102064.94;4996890;28;20030;-66
2021/06/07 04:46:14;;;;;;;2.88;1.58;;;;;;;22.18;47.87;102056.94;5011278;28;20084;-65
2021/06/07 04:48:40;;;;;;;1.90;1.30;;;;;;;22.18;47.95;102059.59;4992996;28;20089;-66
2021/06/07 04:51:06;;;;;;;2.47;1.40;;;;;;;22.17;47.93;102061.44;4991617;28;20485;-66
2021/06/07 04:53:32;;;;;;;1.95;1.20;;;;;;;22.17;48.22;102064.13;4997601;28;20053;-66
2021/06/07 04:55:58;;;;;;;2.25;1.15;;;;;;;22.16;47.95;102064.31;4989059;28;20056;-66
2021/06/07 04:58:29;;;;;;;2.03;1.25;;;;;;;22.16;48.12;102075.00;4978335;28;20478;-69
2021/06/07 05:01:03;;;;;;;2.42;1.30;;;;;;;22.17;48.08;102073.97;4988427;28;20021;-66
2021/06/07 05:03:30;;;;;;;2.45;1.50;;;;;;;22.16;47.80;102072.31;5010474;28;20053;-66
2021/06/07 05:05:57;;;;;;;2.45;1.70;;;;;;;22.17;48.13;102082.00;4996234;28;20130;-67
2021/06/07 05:08:24;;;;;;;2.28;1.40;;;;;;;22.16;47.90;102083.00;4999268;28;20485;-65
2021/06/07 05:10:50;;;;;;;2.78;1.40;;;;;;;22.16;48.02;102075.00;5004161;28;20349;-66
2021/06/07 05:13:16;;;;;;;2.10;1.30;;;;;;;22.15;48.10;102076.84;5000994;28;20048;-65
2021/06/07 05:15:43;;;;;;;2.22;1.30;;;;;;;22.16;47.83;102078.50;5007710;28;20139;-66
2021/06/07 05:18:09;;;;;;;2.95;1.50;;;;;;;22.16;48.09;102075.81;4965223;28;20695;-66
2021/06/07 05:20:34;;;;;;;2.53;1.60;;;;;;;22.17;48.02;102073.97;4978887;28;20042;-67
2021/06/07 05:23:00;;;;;;;2.70;1.25;;;;;;;22.15;48.26;102079.50;5004384;28;20045;-65
2021/06/07 05:25:28;;;;;;;2.55;1.40;;;;;;;22.16;48.06;102083.00;5002518;28;20462;-66
2021/06/07 05:27:56;;;;;;;2.00;1.40;;;;;;;22.17;48.27;102073.97;4978523;28;20046;-66
2021/06/07 05:30:23;;;;;;;2.72;1.30;;;;;;;22.17;47.94;102079.31;5008061;28;20033;-66
2021/06/07 05:32:49;;;;;;;2.92;1.52;;;;;;;22.17;47.98;102076.66;4996489;28;20049;-66
2021/06/07 05:35:16;;;;;;;2.00;1.25;;;;;;;22.16;48.03;102081.16;4995602;28;20030;-67
2021/06/07 05:37:43;;;;;;;2.40;1.30;;;;;;;22.16;47.76;102081.16;4998452;28;20046;-66
2021/06/07 05:40:11;;;;;;;2.83;1.50;;;;;;;22.17;48.03;102077.47;4993536;28;20030;-66
2021/06/07 05:42:37;;;;;;;1.83;1.40;;;;;;;22.16;48.10;102073.16;5009620;28;20052;-66
2021/06/07 05:45:05;;;;;;;2.45;1.30;;;;;;;22.16;47.83;102072.31;4993459;28;20469;-66
2021/06/07 05:47:30;;;;;;;2.45;1.60;;;;;;;22.17;47.94;102076.66;4998351;28;20034;-66
2021/06/07 05:49:56;;;;;;;3.45;1.30;;;;;;;22.16;47.87;102083.00;4991567;28;20449;-65
2021/06/07 05:52:21;;;;;;;2.40;1.35;;;;;;;22.15;47.81;102076.00;4977312;28;20485;-66
2021/06/07 05:54:47;;;;;;;2.72;1.52;;;;;;;22.15;47.94;102076.84;4983271;28;20042;-66
2021/06/07 05:57:12;;;;;;;2.78;1.42;;;;;;;22.15;48.12;102076.00;4983568;28;20113;-66
2021/06/07 05:59:38;;;;;;;4.28;1.90;;;;;;;22.15;47.76;102078.69;4984989;28;20081;-66
2021/06/07 06:02:05;;;;;;;4.10;1.90;;;;;;;22.16;47.91;102072.31;4987063;28;20038;-66
2021/06/07 06:04:32;;;;;;;3.80;1.73;;;;;;;22.16;48.06;102077.66;5002676;28;20061;-69
2021/06/07 06:06:58;;;;;;;3.35;1.60;;;;;;;22.14;47.99;102075.19;5008584;28;20026;-68
2021/06/07 06:09:23;;;;;;;2.55;1.52;;;;;;;22.13;47.78;102073.53;4995960;28;20037;-66
2021/06/07 06:11:49;;;;;;;3.58;1.60;;;;;;;22.14;48.07;102074.34;4975114;28;20034;-66
2021/06/07 06:14:14;;;;;;;3.15;1.60;;;;;;;22.14;47.66;102075.19;4978552;28;20034;-66
2021/06/07 06:16:39;;;;;;;2.40;1.50;;;;;;;22.14;48.15;102069.00;5001209;28;20108;-66
2021/06/07 06:19:05;;;;;;;3.53;1.60;;;;;;;22.14;47.95;102064.50;4976475;28;20042;-66
2021/06/07 06:21:30;;;;;;;2.35;1.45;;;;;;;22.13;48.12;102065.50;4992228;28;20038;-70
2021/06/07 06:23:57;;;;;;;3.28;1.55;;;;;;;22.14;47.87;102064.50;5002824;28;20633;-66
2021/06/07 06:26:24;;;;;;;3.20;1.50;;;;;;;22.14;47.68;102064.50;4989127;28;20033;-66
2021/06/07 06:28:50;;;;;;;2.90;1.65;;;;;;;22.14;48.07;102063.66;4998825;28;20034;-67
2021/06/07 06:31:16;;;;;;;3.13;1.35;;;;;;;22.15;48.12;102062.63;4974453;28;20066;-66
2021/06/07 06:33:42;;;;;;;2.60;1.48;;;;;;;22.14;47.83;102066.34;5007226;28;20049;-66
2021/06/07 06:36:08;;;;;;;3.97;1.58;;;;;;;22.15;48.05;102062.63;4995741;28;20501;-66
2021/06/07 06:38:35;;;;;;;3.17;1.70;;;;;;;22.14;47.98;102060.97;4972304;28;20077;-65
2021/06/07 06:41:01;;;;;;;3.28;1.60;;;;;;;22.14;48.14;102066.34;4971269;28;20042;-66
2021/06/07 06:43:26;;;;;;;4.03;1.75;;;;;;;22.14;48.10;102069.84;4984435;28;20790;-66
2021/06/07 06:45:52;;;;;;;2.15;1.40;;;;;;;22.14;48.27;102066.34;4989549;28;20042;-66
2021/06/07 06:48:18;;;;;;;3.25;1.40;;;;;;;22.14;48.19;102063.66;4989655;28;20042;-66
2021/06/07 06:50:44;;;;;;;3.65;1.63;;;;;;;22.14;47.96;102064.50;4987421;28;20058;-66
2021/06/07 06:53:17;;;;;;;3.00;1.90;;;;;;;22.13;48.10;102070.84;4984487;28;20038;-66
2021/06/07 06:55:44;;;;;;;1.80;1.40;;;;;;;22.14;48.19;102069.00;5007114;28;20247;-66
2021/06/07 06:58:09;;;;;;;2.80;1.70;;;;;;;22.13;47.93;102068.16;4993454;28;20429;-66
2021/06/07 07:00:38;;;;;;;2.42;1.50;;;;;;;22.13;48.23;102070.84;4988899;28;20037;-65
2021/06/07 07:03:13;;;;;;;2.97;1.58;;;;;;;22.13;48.34;102067.34;4984809;28;20402;-65
2021/06/07 07:05:39;;;;;;;3.15;1.90;;;;;;;22.14;48.28;102066.34;5005773;28;20470;-66
2021/06/07 07:08:05;;;;;;;1.67;1.30;;;;;;;22.14;48.08;102063.66;5000011;28;20116;-66
2021/06/07 07:10:31;;;;;;;3.78;1.65;;;;;;;22.13;48.03;102068.16;5002440;28;20061;-67
2021/06/07 07:12:57;;;;;;;3.67;1.80;;;;;;;22.13;48.28;102068.16;4971333;28;20039;-66
2021/06/07 07:15:22;;;;;;;3.42;1.60;;;;;;;22.13;47.96;102068.16;4972322;28;20036;-66
2021/06/07 07:17:48;;;;;;;3.42;1.50;;;;;;;22.13;47.88;102078.03;4993753;28;20034;-66
2021/06/07 07:20:14;;;;;;;2.15;1.30;;;;;;;22.13;48.31;102078.03;4997362;28;20374;-66
2021/06/07 07:22:40;;;;;;;3.50;1.70;;;;;;;22.13;48.23;102067.34;4984927;28;20048;-66
2021/06/07 07:25:08;;;;;;;3.05;1.70;;;;;;;22.14;48.12;102069.84;4980528;28;20026;-66
2021/06/07 07:27:35;;;;;;;3.08;1.73;;;;;;;22.14;48.32;102066.34;4992903;28;20178;-66
2021/06/07 07:30:09;;;;;;;3.80;1.50;;;;;;;22.13;48.29;102067.34;4989519;28;20035;-66
2021/06/07 07:32:39;;;;;;;2.22;1.30;;;;;;;22.13;48.07;102068.16;4983367;28;20046;-65
2021/06/07 07:35:06;;;;;;;2.53;1.50;;;;;;;22.15;48.13;102065.31;5008145;28;20113;-66
2021/06/07 07:37:33;;;;;;;2.65;1.70;;;;;;;22.14;48.10;102056.47;5004952;28;20045;-66
2021/06/07 07:39:59;;;;;;;2.70;1.50;;;;;;;22.13;48.11;102057.47;4970246;28;20141;-66
2021/06/07 07:42:24;;;;;;;3.22;1.85;;;;;;;22.14;48.25;102053.78;5006221;28;20125;-66
2021/06/07 07:44:50;;;;;;;2.78;1.50;;;;;;;22.14;47.94;102053.78;5004491;28;20049;-66
2021/06/07 07:47:17;;;;;;;2.85;1.50;;;;;;;22.15;48.26;102055.44;5008452;28;20045;-66
2021/06/07 07:49:43;;;;;;;2.67;1.60;;;;;;;22.15;48.32;102063.47;5011215;28;20056;-66
2021/06/07 07:52:08;;;;;;;2.55;1.50;;;;;;;22.15;48.29;102051.94;4991165;28;20030;-66
2021/06/07 07:54:35;;;;;;;4.18;1.50;;;;;;;22.14;48.28;102059.16;5003104;28;20038;-66
2021/06/07 07:57:01;;;;;;;3.28;1.40;;;;;;;22.15;48.33;102055.44;5011556;28;20170;-66
2021/06/07 07:59:26;;;;;;;2.83;1.60;;;;;;;22.15;48.24;102058.13;5002616;28;20737;-66
2021/06/07 08:01:52;;;;;;;2.20;1.50;;;;;;;22.17;48.29;102063.28;5002835;28;20044;-66
2021/06/07 08:04:18;;;;;;;4.35;1.90;;;;;;;22.16;48.23;102050.94;4984172;28;20506;-66
2021/06/07 08:06:44;;;;;;;4.63;1.63;;;;;;;22.16;48.08;102059.78;4982964;28;20034;-66
2021/06/07 08:09:11;;;;;;;2.50;1.60;;;;;;;22.16;48.17;102057.09;4973459;28;20057;-66
2021/06/07 08:11:37;;;;;;;3.30;1.70;;;;;;;22.18;48.03;102054.25;4981304;28;20046;-66
2021/06/07 08:14:03;;;;;;;3.55;1.88;;;;;;;22.17;48.31;102064.13;4976302;28;20089;-66
2021/06/07 08:16:29;;;;;;;2.67;1.88;;;;;;;22.18;48.16;102057.75;4989020;28;20132;-66
2021/06/07 08:18:54;;;;;;;2.85;1.63;;;;;;;22.18;48.10;102060.44;4989571;28;20181;-66
2021/06/07 08:21:20;;;;;;;2.90;1.67;;;;;;;22.18;48.14;102060.44;4989035;28;20564;-66
2021/06/07 08:23:46;;;;;;;3.45;1.77;;;;;;;22.18;48.35;102064.94;4988866;28;20397;-67
2021/06/07 08:26:11;;;;;;;4.15;1.50;;;;;;;22.18;48.23;102062.28;4989136;28;20120;-66
2021/06/07 08:28:37;;;;;;;2.75;1.65;;;;;;;22.17;48.40;102058.78;4988952;28;20414;-66
2021/06/07 08:31:03;;;;;;;2.40;1.60;;;;;;;22.17;48.12;102053.41;4979385;28;20039;-66
2021/06/07 08:33:31;;;;;;;2.70;1.50;;;;;;;22.17;48.08;102064.13;4990075;28;20540;-66
2021/06/07 08:35:58;;;;;;;2.65;1.42;;;;;;;22.17;48.35;102066.78;4990650;28;20038;-66
2021/06/07 08:38:24;;;;;;;3.20;1.70;;;;;;;22.18;48.15;102065.78;4991130;28;20531;-66
2021/06/07 08:40:53;;;;;;;3.35;1.60;;;;;;;22.18;48.45;102059.59;4991099;28;20042;-66
2021/06/07 08:43:19;;;;;;;4.30;1.73;;;;;;;22.17;48.26;102058.78;4984392;28;20093;-66
2021/06/07 08:45:45;;;;;;;4.68;2.00;;;;;;;22.17;48.45;102056.09;4973775;28;20035;-66
2021/06/07 08:48:11;;;;;;;3.00;1.58;;;;;;;22.16;48.29;102057.09;4962725;28;20038;-66
2021/06/07 08:50:36;;;;;;;3.60;1.90;;;;;;;22.17;48.25;102058.78;4989394;28;20038;-66
2021/06/07 08:53:02;;;;;;;2.50;1.58;;;;;;;22.17;48.48;102060.63;4989162;28;20518;-67
2021/06/07 08:55:31;;;;;;;3.45;1.85;;;;;;;22.16;48.29;102059.78;4988450;28;20451;-66
2021/06/07 08:57:57;;;;;;;2.90;1.65;;;;;;;22.16;48.03;102056.28;4975815;28;20062;-66
2021/06/07 09:00:25;;;;;;;3.45;1.48;;;;;;;22.16;48.23;102054.44;4977648;28;20564;-67
2021/06/07 09:03:02;;;;;;;2.45;1.45;;;;;;;22.14;48.40;102059.16;4977175;28;20383;-66
2021/06/07 09:05:28;;;;;;;4.05;1.60;;;;;;;22.17;48.23;102057.94;4986861;28;20786;-66
2021/06/07 09:08:01;;;;;;;3.83;1.55;;;;;;;22.15;48.28;102059.97;4990187;28;20034;-65
2021/06/07 09:10:30;;;;;;;3.80;1.73;;;;;;;22.16;48.49;102050.94;4990747;28;20042;-67
2021/06/07 09:13:02;;;;;;;2.72;1.63;;;;;;;22.14;48.49;102053.78;4984681;28;20474;-67
2021/06/07 09:15:35;;;;;;;3.78;1.80;;;;;;;22.14;48.23;102058.31;4984711;28;20042;-66
2021/06/07 09:18:03;;;;;;;3.40;1.60;;;;;;;22.15;48.11;102049.28;4976465;28;20034;-66
2021/06/07 09:20:30;;;;;;;2.42;1.50;;;;;;;22.14;47.98;102056.47;4983577;28;20034;-66
2021/06/07 09:23:12;;;;;;;3.13;1.50;;;;;;;22.15;48.33;102059.97;4980400;28;20027;-66
2021/06/07 09:25:40;;;;;;;2.95;1.67;;;;;;;22.15;48.22;102057.28;4989616;28;20100;-65
2021/06/07 09:28:11;;;;;;;3.28;1.52;;;;;;;22.14;48.28;102045.78;4980276;28;20030;-66
2021/06/07 09:30:36;;;;;;;3.15;1.75;;;;;;;22.16;48.03;102045.59;4973480;28;20042;-66
2021/06/07 09:33:47;;;;;;;3.67;1.50;;;;;;;22.11;47.93;102046.97;4983523;28;20181;-66
2021/06/07 09:36:29;;;;;;;4.28;1.50;;;;;;;22.14;48.30;102037.75;4971765;28;20120;-66
2021/06/07 09:39:10;;;;;;;4.25;1.70;;;;;;;22.15;48.13;102046.59;4970065;28;20034;-66
2021/06/07 09:41:53;;;;;;;3.47;1.70;;;;;;;22.14;48.13;102044.94;4985005;28;20038;-67
2021/06/07 09:44:31;;;;;;;3.70;1.58;;;;;;;22.17;47.76;102041.91;4990199;28;20027;-66
2021/06/07 09:47:09;;;;;;;4.07;1.50;;;;;;;22.14;48.06;102050.28;4988131;28;20465;-66
2021/06/07 09:49:41;;;;;;;3.10;1.60;;;;;;;22.14;47.96;102048.44;4979434;28;20031;-66
2021/06/07 09:52:19;;;;;;;3.72;1.80;;;;;;;22.13;48.17;102044.13;4983948;28;20425;-66
2021/06/07 09:54:58;;;;;;;3.00;1.50;;;;;;;22.16;48.10;102045.59;4981669;28;20026;-66
2021/06/07 09:57:47;;;;;;;3.10;1.50;;;;;;;22.12;48.08;102045.13;4980403;28;20058;-66
2021/06/07 10:00:31;;;;;;;3.78;1.77;;;;;;;22.12;47.77;102047.81;4975772;28;20781;-65
2021/06/07 10:02:56;;;;;;;2.95;1.60;;;;;;;22.14;47.82;102039.59;4982334;28;20057;-66
2021/06/07 10:05:33;;;;;;;3.13;1.42;;;;;;;22.13;47.88;102041.44;4974602;28;20398;-66
2021/06/07 10:07:58;;;;;;;3.40;1.55;;;;;;;22.15;48.05;102044.75;5009798;28;20072;-66
2021/06/07 10:10:24;;;;;;;2.72;1.65;;;;;;;22.15;47.87;102049.28;4995123;28;20489;-65
2021/06/07 10:12:50;;;;;;;3.17;1.33;;;;;;;22.14;47.77;102048.44;4968915;28;20034;-65
2021/06/07 10:15:40;;;;;;;3.20;1.55;;;;;;;22.11;47.87;102043.47;4984965;28;20366;-68
2021/06/07 10:18:09;;;;;;;3.28;1.27;;;;;;;22.15;47.87;102046.59;4990243;28;20027;-65
2021/06/07 10:23:19;;;;;;;2.35;1.40;;;;;;;22.13;47.85;102044.13;4990744;28;20038;-66
2021/06/07 10:25:45;;;;;;;3.00;1.60;;;;;;;22.13;47.89;102036.09;5003417;28;20033;-66
2021/06/07 10:28:12;;;;;;;3.00;1.67;;;;;;;22.14;47.99;102036.94;5008767;28;20087;-66
2021/06/07 10:30:43;;;;;;;2.75;1.42;;;;;;;22.13;47.79;102037.94;5006460;28;20044;-66
2021/06/07 10:33:27;;;;;;;2.88;1.35;;;;;;;22.09;48.40;102035.66;4988325;28;20429;-66
2021/06/07 10:35:53;;;;;;;4.97;1.65;;;;;;;22.13;47.73;102041.44;4999740;28;20033;-67
2021/06/07 10:38:35;;;;;;;2.33;1.52;;;;;;;22.10;47.85;102031.13;4990641;28;20486;-66
2021/06/07 10:41:17;;;;;;;2.88;1.60;;;;;;;22.09;48.18;102030.31;4990910;28;20030;-66
2021/06/07 10:43:52;;;;;;;2.47;1.50;;;;;;;22.11;47.86;102022.09;4994489;28;20080;-65
2021/06/07 10:46:27;;;;;;;4.97;2.13;;;;;;;22.11;47.99;102025.59;5009277;28;20497;-66
2021/06/07 10:48:55;;;;;;;3.78;1.80;;;;;;;22.12;47.70;102034.44;4994526;28;20034;-66
2021/06/07 10:51:26;;;;;;;2.70;1.70;;;;;;;22.11;47.62;102032.78;4990780;28;20644;-65
2021/06/07 10:53:54;;;;;;;3.55;1.63;;;;;;;22.12;47.94;102029.09;4985983;28;20033;-66
2021/06/07 10:56:27;;;;;;;3.10;1.40;;;;;;;22.11;47.63;102030.94;5002231;28;20034;-66
2021/06/07 10:58:55;;;;;;;3.53;1.50;;;;;;;22.12;47.64;102023.75;5005880;28;20137;-66
2021/06/07 11:01:21;;;;;;;3.35;1.70;;;;;;;22.14;47.81;102020.91;4995000;28;20497;-66
2021/06/07 11:03:58;;;;;;;2.95;1.50;;;;;;;22.09;47.81;102014.28;4998532;28;20038;-65
2021/06/07 11:06:24;;;;;;;2.13;1.35;;;;;;;22.13;47.51;102012.06;5007813;28;20354;-66
2021/06/07 11:09:07;;;;;;;2.50;1.38;;;;;;;22.10;47.52;102018.59;5008241;28;20033;-66
2021/06/07 11:11:47;;;;;;;3.03;1.40;;;;;;;22.11;47.75;102011.41;5007804;28;20034;-66
2021/06/07 11:14:14;;;;;;;3.35;1.75;;;;;;;22.14;47.81;102012.88;4994448;28;20136;-66
2021/06/07 11:16:43;;;;;;;2.40;1.45;;;;;;;22.13;47.68;102003.22;4981948;28;20041;-66
2021/06/07 11:19:14;;;;;;;3.58;1.63;;;;;;;22.14;47.56;102003.03;4990350;28;20381;-66
2021/06/07 11:21:43;;;;;;;3.08;1.50;;;;;;;22.14;47.91;101992.31;4975428;28;20485;-65
2021/06/07 11:24:38;;;;;;;4.10;1.70;;;;;;;22.10;47.86;101986.53;5008463;28;20088;-66
2021/06/07 11:27:06;;;;;;;3.20;1.60;;;;;;;22.14;47.52;101994.16;5003804;28;20117;-66
2021/06/07 11:29:32;;;;;;;3.17;1.60;;;;;;;22.14;47.50;101984.31;4992993;28;20032;-70
2021/06/07 11:32:08;;;;;;;2.78;1.60;;;;;;;22.12;47.81;101983.66;4998920;28;20034;-65